This is the latest recevied weather packets stored in our database for station/object N2UGS-WX. If no packets are shown the sender has not sent any weather packets the latest 10 day(s).
| Time | Temp. | Humidity | Pressure | Rain* | Wind** | Luminosity | Snow |
|---|---|---|---|---|---|---|---|
| 1777966801 | 12.22° C | 95% | 1002 hPa | 0 mm | - | - | - |
| 1777965902 | 11.67° C | 94% | 1002 hPa | 0 mm | - | - | - |
| 1777965242 | 12.22° C | 94% | 1002.4 hPa | 0 mm | - | - | - |
| 1777964402 | 12.22° C | 94% | 1002.7 hPa | 0 mm | - | - | - |
| 1777963742 | 12.22° C | 94% | 1002.7 hPa | 0 mm | - | - | - |
| 1777962902 | 12.22° C | 94% | 1004.1 hPa | 0.51 mm | - | - | - |
| 1777962002 | 12.22° C | 93% | 1003.7 hPa | 0.51 mm | - | - | - |
| 1777961102 | 12.22° C | 92% | 1003.4 hPa | 0.51 mm | - | - | - |
| 1777960202 | 12.78° C | 88% | 1004.1 hPa | 0.51 mm | - | - | - |
| 1777959302 | 14.44° C | 78% | 1003.7 hPa | 0 mm | - | - | - |
| 1777958642 | 14.44° C | 77% | 1003.4 hPa | 0 mm | - | - | - |
| 1777956242 | 17.22° C | 67% | 1003.4 hPa | 0 mm | - | - | - |
| 1777955403 | 16.67° C | 71% | 1003.4 hPa | 0 mm | - | - | - |
| 1777954503 | 17.22° C | 71% | 1003 hPa | 0 mm | - | - | - |
| 1777953602 | 17.78° C | 65% | 1003 hPa | 0 mm | - | - | - |
| 1777952702 | 17.22° C | 68% | 1002.7 hPa | 0 mm | - | - | - |
| 1777951803 | 16.11° C | 69% | 1002.7 hPa | 0 mm | - | - | - |
| 1777950902 | 15.56° C | 68% | 1003 hPa | 0 mm | - | - | - |
| 1777950002 | 15.56° C | 68% | 1003.4 hPa | 0 mm | - | - | - |
| 1777949102 | 15.56° C | 68% | 1003.4 hPa | 0 mm | - | - | - |
| 1777948202 | 15.56° C | 68% | 1003.4 hPa | 0 mm | - | - | - |
| 1777947542 | 15.56° C | 68% | 1003.4 hPa | 0 mm | - | - | - |
| 1777946702 | 15.56° C | 59% | 1003.7 hPa | 0 mm | - | - | - |
| 1777946042 | 15° C | 56% | 1003.4 hPa | 0 mm | - | - | - |
| 1777945142 | 15° C | 55% | 1003.4 hPa | 0 mm | - | - | - |
* Rain latest hour (hover to see other rain measurements)
** Current wind speed in m/s (hover to see current wind gust speed)